Maldives Meteorological Service

METAR

Station
VRMM
METAR VRMM 230200Z 28013KT 9999 FEW018 FEW019CB BKN120 28/26 Q1010 CB S,WNW NOSIG=
VRMH
METAR VRMH 230300Z 29012KT 8000 –TSRA SCT017 FEW018CB 25/25 Q1011 RETS CB N, W, OVHD=
VRMK
METAR VRMK 230300Z 23006KT 9999 FEW017 FEW018CB BKN120 28/26 Q1011 CB NNE,NW=
VRMT
METAR VRMT 230300Z 23005KT 9999 FEW018TCU BKN260 29/25 Q1010=
VRMG
METAR VRMG 230300Z 20006KT 9999 FEW018TCU BKN260 29/26 Q1011 TEMPO 5000 -SHRA=
Last Updated : 2017-05-23 08:00:14

SPECI

Station
VRMM
SPECI VRMM 230251Z 27013KT 7000 -SHRA FEW016 FEW017CB BKN120 26/26 Q1010 RESHRA CB E,S TEMP0 5000 -SHRA=
VRMH
VRMK
VRMT
VRMG
Last Updated : 2017-05-23 08:00:14